createdAt,value
2017-10-15T00:36:41.517Z,12.14
2017-10-15T00:39:18.944Z,11.90
2017-10-15T00:41:54.023Z,11.98
2017-10-15T00:44:25.450Z,12.01
2017-10-15T00:46:56.744Z,12.10
2017-10-15T00:49:27.815Z,12.21
2017-10-15T00:51:58.999Z,12.27
2017-10-15T00:54:30.677Z,12.35
2017-10-15T00:57:02.936Z,12.42
2017-10-15T00:59:34.296Z,12.39
2017-10-15T01:02:05.909Z,12.41
2017-10-15T01:04:36.927Z,12.37
2017-10-15T01:07:08.053Z,12.42
2017-10-15T01:09:39.608Z,12.44
2017-10-15T01:12:11.983Z,12.49
2017-10-15T01:14:43.940Z,12.46
2017-10-15T01:17:14.998Z,12.45
2017-10-15T01:19:49.432Z,12.45
2017-10-15T01:22:20.683Z,12.45
2017-10-15T01:24:52.042Z,12.39
2017-10-15T01:27:23.087Z,12.39
2017-10-15T01:29:54.896Z,12.00
2017-10-15T01:32:26.766Z,12.20
2017-10-15T01:34:58.145Z,12.21
2017-10-15T01:37:29.098Z,11.82
2017-10-15T01:39:59.930Z,11.99
2017-10-15T01:42:31.153Z,11.13
2017-10-15T01:45:02.391Z,11.30
2017-10-15T01:47:34.020Z,10.98
2017-10-15T01:50:05.107Z,11.30
2017-10-15T01:52:36.221Z,11.38
2017-10-15T01:55:07.671Z,11.24
2017-10-15T01:57:38.725Z,11.58
2017-10-15T02:00:10.064Z,11.53
2017-10-15T02:02:48.672Z,11.65
2017-10-15T02:05:21.215Z,11.67
2017-10-15T02:07:52.598Z,11.46
2017-10-15T02:10:24.495Z,11.22
2017-10-15T02:12:55.804Z,11.42
2017-10-15T02:15:27.064Z,11.46
2017-10-15T02:17:58.607Z,11.55
2017-10-15T02:20:29.765Z,11.57
2017-10-15T02:23:00.751Z,11.63
2017-10-15T02:25:32.140Z,11.68
2017-10-15T02:28:03.302Z,11.72
2017-10-15T02:30:34.870Z,11.71
2017-10-15T02:33:05.951Z,11.77
2017-10-15T02:35:37.388Z,11.73
2017-10-15T02:38:09.414Z,11.77
2017-10-15T02:40:42.040Z,11.77
2017-10-15T02:43:13.583Z,11.74
2017-10-15T02:45:46.676Z,11.69
2017-10-15T02:48:17.901Z,11.69
2017-10-15T02:50:50.392Z,11.67
2017-10-15T02:53:22.130Z,11.65
2017-10-15T02:55:53.352Z,11.68
2017-10-15T02:58:24.596Z,11.67
2017-10-15T03:00:56.219Z,11.68
2017-10-15T03:03:26.790Z,11.71
2017-10-15T03:05:58.290Z,11.78
2017-10-15T03:08:29.805Z,11.83
2017-10-15T03:11:03.566Z,11.79
2017-10-15T03:13:37.348Z,11.76
2017-10-15T03:16:08.795Z,11.77
2017-10-15T03:18:40.399Z,11.74
2017-10-15T03:21:12.204Z,11.70
2017-10-15T03:23:44.493Z,11.71
2017-10-15T03:26:15.731Z,11.68
2017-10-15T03:28:50.718Z,11.69
2017-10-15T03:31:22.131Z,11.71
2017-10-15T03:33:53.689Z,11.73
2017-10-15T03:36:24.754Z,11.66
2017-10-15T03:38:55.759Z,11.66
2017-10-15T03:41:27.373Z,11.59
2017-10-15T03:43:58.490Z,11.62
2017-10-15T03:46:29.578Z,11.63
2017-10-15T03:49:00.765Z,11.22
2017-10-15T03:51:32.222Z,11.19
2017-10-15T03:54:03.084Z,10.82
2017-10-15T03:56:34.201Z,11.07
2017-10-15T03:59:06.286Z,11.09
2017-10-15T04:01:36.979Z,11.26
2017-10-15T04:04:08.738Z,11.18
2017-10-15T04:06:40.560Z,11.21
2017-10-15T04:09:11.818Z,11.23
2017-10-15T04:11:42.961Z,11.25
2017-10-15T04:14:14.372Z,11.28
2017-10-15T04:16:48.971Z,11.31
2017-10-15T04:19:20.431Z,11.35
2017-10-15T04:21:53.754Z,11.32
2017-10-15T04:24:25.195Z,10.99
2017-10-15T04:26:56.875Z,11.18
2017-10-15T04:29:27.982Z,11.24
2017-10-15T04:31:59.088Z,11.17
2017-10-15T04:34:30.426Z,10.97
2017-10-15T04:37:01.874Z,10.48
2017-10-15T04:39:33.115Z,10.75
2017-10-15T04:42:04.748Z,10.94
2017-10-15T04:44:36.562Z,11.02
2017-10-15T04:47:07.600Z,11.07
2017-10-15T04:49:38.873Z,10.41
2017-10-15T04:52:10.299Z,10.46
2017-10-15T04:54:41.585Z,10.64
2017-10-15T04:57:13.992Z,10.72
2017-10-15T04:59:48.769Z,10.79
2017-10-15T05:02:20.157Z,10.82
2017-10-15T05:04:52.935Z,10.06
2017-10-15T05:07:24.253Z,10.55
2017-10-15T05:09:56.167Z,10.69
2017-10-15T05:12:29.662Z,10.76
2017-10-15T05:15:03.233Z,10.76
2017-10-15T05:17:34.794Z,10.75
2017-10-15T05:20:06.788Z,10.77
2017-10-15T05:22:37.768Z,10.74
2017-10-15T05:25:09.026Z,10.75
2017-10-15T05:27:40.646Z,10.75
2017-10-15T05:30:12.374Z,10.78
2017-10-15T05:32:43.452Z,10.81
2017-10-15T05:35:15.292Z,10.83
2017-10-15T05:37:48.857Z,10.81
2017-10-15T05:40:21.411Z,10.77
2017-10-15T05:42:52.207Z,10.77
2017-10-15T05:45:23.664Z,10.79
2017-10-15T05:47:55.008Z,10.79
2017-10-15T05:50:25.770Z,10.76
2017-10-15T05:52:56.916Z,10.76
2017-10-15T05:55:29.785Z,10.78
2017-10-15T05:58:02.365Z,10.82
2017-10-15T06:00:32.956Z,10.83
2017-10-15T06:03:04.263Z,10.82
2017-10-15T06:05:36.718Z,10.83
2017-10-15T06:08:07.842Z,10.80
2017-10-15T06:10:39.678Z,10.77
2017-10-15T06:13:11.219Z,10.77
2017-10-15T06:15:42.466Z,10.80
2017-10-15T06:18:13.083Z,10.74
2017-10-15T06:20:44.175Z,10.77
2017-10-15T06:23:16.582Z,10.78
2017-10-15T06:25:50.600Z,10.81
2017-10-15T06:28:23.045Z,10.85
2017-10-15T06:30:54.474Z,10.88
2017-10-15T06:33:27.167Z,10.89
2017-10-15T06:35:58.060Z,10.91
2017-10-15T06:38:28.739Z,10.92
2017-10-15T06:40:59.384Z,10.98
2017-10-15T06:43:31.046Z,10.98
2017-10-15T06:49:01.856Z,10.97
2017-10-15T06:51:33.531Z,11.04
2017-10-15T06:54:08.193Z,11.10
2017-10-15T06:56:39.630Z,11.23
2017-10-15T06:59:10.891Z,11.38
2017-10-15T07:01:46.086Z,11.51
2017-10-15T07:04:18.017Z,11.75
2017-10-15T07:06:52.184Z,11.90
2017-10-15T07:09:24.106Z,12.04
2017-10-15T07:11:57.690Z,12.08
2017-10-15T07:14:29.545Z,12.26
2017-10-15T07:17:01.587Z,12.41
2017-10-15T07:19:34.856Z,12.48
2017-10-15T07:22:08.196Z,12.54
2017-10-15T07:24:42.007Z,12.53
2017-10-15T07:27:18.384Z,12.70
2017-10-15T07:29:53.815Z,12.90
2017-10-15T07:32:24.980Z,13.00
2017-10-15T07:34:58.640Z,13.11
2017-10-15T07:37:29.361Z,13.18
2017-10-15T07:40:00.786Z,13.40
2017-10-15T07:42:33.260Z,13.42
2017-10-15T07:45:13.878Z,13.37
2017-10-15T07:47:47.638Z,13.59
2017-10-15T07:50:20.230Z,13.89
2017-10-15T07:52:51.146Z,13.72
2017-10-15T07:55:22.479Z,13.75
2017-10-15T07:57:53.631Z,13.68
2017-10-15T08:00:26.266Z,13.95
2017-10-15T08:02:57.482Z,14.01
2017-10-15T08:05:28.690Z,13.95
2017-10-15T08:08:00.007Z,14.08
2017-10-15T08:10:31.247Z,14.11
2017-10-15T08:13:04.255Z,14.19
2017-10-15T08:15:35.203Z,14.43
2017-10-15T08:18:06.248Z,14.43
2017-10-15T08:20:38.575Z,14.92
2017-10-15T08:23:12.827Z,15.08
2017-10-15T08:25:45.631Z,15.12
2017-10-15T08:28:18.410Z,15.33
2017-10-15T08:30:50.395Z,16.25
2017-10-15T08:33:21.710Z,16.70
2017-10-15T08:35:52.410Z,16.64
2017-10-15T08:38:24.320Z,17.04
2017-10-15T08:40:55.011Z,17.02
2017-10-15T08:43:25.811Z,17.16
2017-10-15T08:45:57.842Z,17.37
2017-10-15T08:48:29.901Z,17.61
2017-10-15T08:51:01.660Z,17.87
2017-10-15T08:53:32.608Z,18.06
2017-10-15T08:56:04.877Z,18.25
2017-10-15T08:58:35.684Z,18.25
2017-10-15T09:01:07.785Z,18.24
2017-10-15T09:03:39.599Z,17.61
2017-10-15T09:06:14.089Z,18.23
2017-10-15T09:08:45.377Z,18.80
2017-10-15T09:11:16.960Z,18.68
2017-10-15T09:13:49.979Z,18.30
2017-10-15T09:16:22.080Z,18.32
2017-10-15T09:18:53.405Z,18.25
2017-10-15T09:21:25.773Z,18.74
2017-10-15T09:23:56.939Z,19.50
2017-10-15T09:26:29.007Z,19.55
2017-10-15T09:28:59.882Z,19.66
2017-10-15T09:31:30.559Z,19.76
2017-10-15T09:34:02.009Z,20.01
2017-10-15T09:36:42.458Z,20.01
2017-10-15T10:05:17.280Z,20.82
2017-10-15T10:12:33.828Z,21.32
2017-10-15T10:15:11.165Z,21.56
2017-10-15T10:17:42.472Z,22.16
2017-10-15T10:20:20.415Z,22.23
2017-10-15T11:07:19.193Z,23.16
2017-10-15T11:15:25.691Z,24.08
2017-10-15T11:18:08.641Z,24.95
2017-10-15T11:20:43.066Z,24.83
2017-10-15T11:23:19.783Z,24.30
2017-10-15T11:25:54.096Z,24.82
2017-10-15T11:28:30.694Z,24.24
2017-10-15T11:31:07.342Z,24.63
2017-10-15T11:33:43.954Z,24.30
2017-10-15T11:36:21.231Z,24.93
2017-10-15T11:39:05.725Z,24.74
2017-10-15T11:41:37.748Z,24.66
2017-10-15T11:44:08.638Z,24.05
2017-10-15T11:46:42.138Z,24.64
2017-10-15T11:49:16.936Z,24.85
2017-10-15T11:51:47.517Z,24.88
2017-10-15T11:54:18.907Z,25.07
2017-10-15T11:56:49.826Z,25.04
2017-10-15T11:59:20.848Z,25.25
2017-10-15T12:01:52.174Z,25.02
2017-10-15T12:04:25.103Z,25.57
2017-10-15T12:06:57.432Z,25.99
2017-10-15T12:09:29.574Z,25.44
2017-10-15T12:12:01.055Z,25.28
2017-10-15T12:14:32.909Z,24.92
2017-10-15T12:17:03.947Z,24.96
2017-10-15T12:19:41.705Z,25.02
2017-10-15T12:22:15.149Z,25.18
2017-10-15T12:24:46.990Z,25.22
2017-10-15T12:27:19.847Z,25.43
2017-10-15T12:29:52.503Z,25.28
2017-10-15T12:32:24.891Z,25.41
2017-10-15T12:34:57.759Z,25.14
2017-10-15T12:37:29.183Z,25.39
2017-10-15T12:40:00.696Z,25.33
2017-10-15T12:42:47.038Z,25.64
2017-10-15T12:45:32.534Z,25.63
2017-10-15T12:48:11.700Z,25.63
2017-10-15T12:50:44.006Z,24.82
2017-10-15T12:53:17.590Z,25.27
2017-10-15T12:55:51.334Z,25.03
2017-10-15T12:58:23.390Z,24.72
2017-10-15T13:00:57.060Z,24.60
2017-10-15T13:03:28.683Z,24.85
2017-10-15T13:06:00.249Z,25.01
2017-10-15T13:08:33.218Z,24.58
2017-10-15T13:11:05.028Z,24.63
2017-10-15T13:13:37.911Z,24.49
2017-10-15T13:16:14.182Z,24.12
2017-10-15T13:18:48.393Z,24.14
2017-10-15T13:21:20.789Z,24.14
2017-10-15T13:23:51.803Z,24.59
2017-10-15T13:26:23.409Z,24.20
2017-10-15T13:28:54.684Z,24.12
2017-10-15T13:31:25.702Z,24.14
2017-10-15T13:33:57.036Z,24.21
2017-10-15T13:36:29.338Z,24.30
2017-10-15T13:39:00.050Z,24.31
2017-10-15T13:41:30.858Z,24.10
2017-10-15T13:44:04.497Z,24.20
2017-10-15T13:46:36.561Z,24.19
2017-10-15T13:49:12.443Z,24.05
2017-10-15T13:51:45.036Z,24.07
2017-10-15T13:57:21.341Z,23.92
2017-10-15T13:59:53.738Z,23.74
2017-10-15T14:02:26.197Z,23.82
2017-10-15T14:04:57.163Z,23.87
2017-10-15T14:07:29.708Z,23.84
2017-10-15T14:10:00.563Z,23.57
2017-10-15T14:12:31.433Z,23.63
2017-10-15T14:15:02.882Z,23.68
2017-10-15T14:17:35.384Z,23.63
2017-10-15T14:20:07.816Z,23.51
2017-10-15T14:22:38.709Z,23.41
2017-10-15T14:25:12.704Z,23.30
2017-10-15T14:27:44.317Z,23.31
2017-10-15T14:30:19.004Z,23.26
2017-10-15T14:32:50.037Z,23.25
2017-10-15T14:35:20.571Z,23.19
2017-10-15T14:37:51.350Z,23.15
2017-10-15T14:40:22.636Z,22.97
2017-10-15T14:42:55.839Z,22.99
2017-10-15T14:45:28.354Z,22.96
2017-10-15T14:47:59.302Z,22.84
2017-10-15T14:50:31.676Z,22.80
2017-10-15T14:53:03.104Z,22.72
2017-10-15T14:55:35.539Z,22.70
2017-10-15T14:58:06.247Z,22.61
2017-10-15T15:00:37.634Z,22.57
2017-10-15T15:03:08.251Z,22.51
2017-10-15T15:05:40.847Z,22.38
2017-10-15T15:08:15.430Z,22.30
2017-10-15T15:10:46.534Z,22.25
2017-10-15T15:13:17.550Z,22.24
2017-10-15T15:15:57.571Z,22.20
2017-10-15T15:18:28.387Z,22.13
2017-10-15T15:21:00.318Z,22.05
2017-10-15T15:23:31.176Z,21.95
2017-10-15T15:26:02.223Z,21.95
2017-10-15T15:28:33.398Z,21.81
2017-10-15T15:31:04.231Z,21.72
2017-10-15T15:33:35.911Z,21.71
2017-10-15T15:36:06.887Z,21.63
2017-10-15T15:38:37.891Z,21.51
2017-10-15T15:41:08.961Z,21.41
2017-10-15T15:43:41.220Z,21.28
2017-10-15T15:46:12.336Z,21.22
2017-10-15T15:48:43.392Z,21.16
2017-10-15T15:51:14.179Z,21.04
2017-10-15T15:53:46.333Z,20.87
2017-10-15T15:56:17.635Z,20.80
2017-10-15T15:58:49.244Z,20.75
2017-10-15T16:01:20.631Z,20.68
2017-10-15T16:03:51.736Z,20.50
2017-10-15T16:06:22.874Z,20.43
2017-10-15T16:08:54.663Z,20.32
2017-10-15T16:11:26.166Z,20.22
2017-10-15T16:13:57.360Z,20.14
2017-10-15T16:16:30.429Z,20.01
2017-10-15T16:19:07.323Z,19.93
2017-10-15T16:21:39.556Z,19.84
2017-10-15T16:24:13.411Z,19.76
2017-10-15T16:26:46.007Z,19.71
2017-10-15T16:29:17.448Z,19.72
2017-10-15T16:31:48.860Z,19.68
2017-10-15T16:34:21.166Z,19.56
2017-10-15T16:36:52.966Z,19.54
2017-10-15T16:39:24.665Z,19.48
2017-10-15T16:41:56.524Z,19.40
2017-10-15T16:44:32.261Z,19.30
2017-10-15T16:47:03.185Z,19.22
2017-10-15T16:49:33.960Z,19.17
2017-10-15T16:52:04.634Z,19.01
2017-10-15T16:54:39.768Z,18.87
2017-10-15T16:57:12.532Z,18.84
2017-10-15T16:59:43.732Z,18.79
2017-10-15T17:02:17.651Z,18.79
2017-10-15T17:04:48.594Z,18.68
2017-10-15T17:07:19.856Z,18.54
2017-10-15T17:09:50.973Z,18.47
2017-10-15T17:12:22.590Z,18.41
2017-10-15T17:14:54.439Z,18.31
2017-10-15T17:17:26.208Z,18.27
2017-10-15T17:19:59.837Z,18.21
2017-10-15T17:22:32.895Z,18.18
2017-10-15T17:25:11.982Z,18.14
2017-10-15T17:27:44.054Z,18.08
2017-10-15T17:30:22.423Z,18.05
2017-10-15T17:33:01.726Z,17.97
2017-10-15T17:35:34.288Z,17.96
2017-10-15T17:38:05.458Z,17.85
2017-10-15T17:40:36.481Z,17.60
2017-10-15T17:43:07.125Z,17.30
2017-10-15T17:45:37.743Z,17.11
2017-10-15T17:48:14.504Z,17.20
2017-10-15T17:50:45.710Z,17.18
2017-10-15T17:53:22.391Z,17.08
2017-10-15T17:55:54.097Z,17.09
2017-10-15T17:58:26.359Z,17.02
2017-10-15T18:01:01.225Z,16.91
2017-10-15T18:03:32.115Z,16.83
2017-10-15T18:06:03.486Z,16.86
2017-10-15T18:08:55.436Z,16.91
2017-10-15T18:11:42.161Z,16.90
2017-10-15T18:14:19.718Z,16.78
2017-10-15T18:43:14.101Z,16.45
2017-10-15T19:08:05.339Z,15.50
2017-10-15T19:10:37.666Z,15.49
2017-10-15T19:13:11.625Z,15.00
2017-10-15T19:15:43.801Z,15.24
2017-10-15T19:18:20.253Z,15.27
2017-10-15T19:20:56.881Z,15.12
2017-10-15T19:23:47.379Z,15.02
2017-10-15T19:26:18.558Z,14.69
2017-10-15T19:28:49.396Z,14.68
2017-10-15T19:31:20.402Z,14.78
2017-10-15T19:33:51.230Z,14.78
2017-10-15T19:36:21.915Z,14.79
2017-10-15T19:38:57.754Z,14.77
2017-10-15T19:41:29.983Z,14.60
2017-10-15T19:44:02.692Z,14.64
2017-10-15T19:46:33.382Z,14.59
2017-10-15T19:49:05.114Z,14.29
2017-10-15T19:51:35.882Z,14.46
2017-10-15T19:54:06.852Z,14.40
2017-10-15T19:56:37.456Z,14.39
2017-10-15T19:59:17.210Z,14.35
2017-10-15T20:01:49.332Z,14.31
2017-10-15T20:04:23.083Z,14.33
2017-10-15T20:06:55.542Z,14.33
2017-10-15T20:09:30.226Z,14.35
2017-10-15T20:12:02.562Z,14.27
2017-10-15T20:14:33.390Z,14.23
2017-10-15T20:17:09.689Z,14.17
2017-10-15T20:19:45.172Z,14.15
2017-10-15T20:22:17.443Z,14.11
2017-10-15T20:24:50.282Z,14.10
2017-10-15T20:27:26.209Z,14.08
2017-10-15T20:29:57.422Z,14.06
2017-10-15T20:32:29.375Z,14.00
2017-10-15T20:35:01.145Z,13.90
2017-10-15T20:37:32.365Z,13.88
2017-10-15T20:40:04.364Z,13.83
2017-10-15T20:42:36.903Z,13.79
2017-10-15T20:45:12.785Z,13.80
2017-10-15T20:47:43.565Z,13.76
2017-10-15T20:50:18.571Z,13.81
2017-10-15T20:52:49.711Z,13.79
2017-10-15T20:55:22.064Z,13.70
2017-10-15T20:57:54.507Z,13.56
2017-10-15T21:00:26.403Z,13.66
2017-10-15T21:02:59.095Z,13.63
2017-10-15T21:05:30.592Z,13.58
2017-10-15T21:08:01.655Z,13.57
2017-10-15T21:10:32.904Z,13.66
2017-10-15T21:13:04.086Z,13.72
2017-10-15T21:15:35.646Z,13.73
2017-10-15T21:18:07.276Z,13.73
2017-10-15T21:20:39.048Z,13.70
2017-10-15T21:23:20.697Z,13.70
2017-10-15T21:25:57.285Z,13.64
2017-10-15T21:28:28.484Z,13.62
2017-10-15T21:31:00.119Z,13.54
2017-10-15T21:33:31.009Z,13.49
2017-10-15T21:36:03.150Z,13.46
2017-10-15T21:38:36.218Z,13.41
2017-10-15T21:41:07.002Z,13.41
2017-10-15T21:43:38.279Z,13.35
2017-10-15T21:46:08.970Z,13.34
2017-10-15T21:48:40.018Z,13.32
2017-10-15T21:51:15.080Z,13.29
2017-10-15T21:56:53.568Z,13.19
2017-10-15T21:59:24.151Z,13.18
2017-10-15T22:01:57.767Z,13.21
2017-10-15T22:04:41.323Z,13.16
2017-10-15T22:07:12.134Z,13.17
2017-10-15T22:09:43.761Z,13.13
2017-10-15T22:12:16.298Z,13.11
2017-10-15T22:14:47.759Z,13.13
2017-10-15T22:17:19.640Z,13.11
2017-10-15T22:19:50.299Z,13.08
2017-10-15T22:22:26.677Z,13.08
2017-10-15T22:24:57.631Z,13.05
2017-10-15T22:27:28.133Z,13.06
2017-10-15T22:29:58.787Z,13.04
2017-10-15T22:32:30.179Z,13.05
2017-10-15T22:35:01.822Z,13.06
2017-10-15T22:37:33.156Z,13.08
2017-10-15T22:40:04.521Z,13.05
2017-10-15T22:42:36.830Z,13.05
2017-10-15T22:45:07.571Z,13.04
2017-10-15T22:47:38.013Z,13.04
2017-10-15T22:50:12.414Z,13.02
2017-10-15T22:52:43.284Z,13.01
2017-10-15T22:55:16.036Z,12.98
2017-10-15T22:57:47.011Z,12.95
2017-10-15T23:00:18.166Z,12.92
2017-10-15T23:02:49.719Z,12.90
2017-10-15T23:05:21.480Z,12.87
2017-10-15T23:07:53.356Z,12.84
2017-10-15T23:10:28.288Z,12.85
2017-10-15T23:12:59.998Z,12.82
2017-10-15T23:15:31.639Z,12.79
2017-10-15T23:18:02.940Z,12.81
2017-10-15T23:20:35.627Z,12.78
2017-10-15T23:23:06.457Z,12.74
2017-10-15T23:25:39.328Z,12.72
2017-10-15T23:28:13.179Z,12.73
2017-10-15T23:30:45.774Z,12.68
2017-10-15T23:33:17.458Z,12.64
2017-10-15T23:35:48.543Z,12.63
2017-10-15T23:38:20.871Z,12.62
2017-10-15T23:40:51.968Z,12.56
2017-10-15T23:43:23.212Z,12.53
2017-10-15T23:45:57.181Z,12.48
2017-10-15T23:48:29.221Z,12.49
2017-10-15T23:51:01.229Z,12.45
2017-10-15T23:53:33.095Z,12.44
2017-10-15T23:56:04.217Z,12.41
2017-10-15T23:58:35.990Z,12.42
